sensor_id;sensor_type;location;lat;lon;timestamp;pressure;altitude;pressure_sealevel;temperature;humidity
4617;BME280;2321;42.704;23.384;2024-03-02T00:00:55;94870.63;;;9.33;100.00
4617;BME280;2321;42.704;23.384;2024-03-02T00:03:23;94890.13;;;9.47;100.00
4617;BME280;2321;42.704;23.384;2024-03-02T00:05:50;94887.03;;;9.43;100.00
4617;BME280;2321;42.704;23.384;2024-03-02T00:08:24;94904.22;;;9.47;100.00
4617;BME280;2321;42.704;23.384;2024-03-02T00:10:52;94904.63;;;9.51;100.00
4617;BME280;2321;42.704;23.384;2024-03-02T00:13:23;94898.72;;;9.56;100.00
4617;BME280;2321;42.704;23.384;2024-03-02T00:15:54;94899.94;;;9.53;100.00
4617;BME280;2321;42.704;23.384;2024-03-02T00:18:25;94894.25;;;9.56;100.00
4617;BME280;2321;42.704;23.384;2024-03-02T00:20:56;94893.84;;;9.59;100.00
4617;BME280;2321;42.704;23.384;2024-03-02T00:23:24;94897.13;;;9.62;100.00
4617;BME280;2321;42.704;23.384;2024-03-02T00:25:53;94895.28;;;9.62;100.00
4617;BME280;2321;42.704;23.384;2024-03-02T00:28:21;94894.06;;;9.65;100.00
4617;BME280;2321;42.704;23.384;2024-03-02T00:30:56;94890.78;;;9.63;100.00
4617;BME280;2321;42.704;23.384;2024-03-02T00:33:25;94893.63;;;9.61;100.00
4617;BME280;2321;42.704;23.384;2024-03-02T00:35:53;94892.41;;;9.64;100.00
4617;BME280;2321;42.704;23.384;2024-03-02T00:38:20;94886.50;;;9.62;100.00
4617;BME280;2321;42.704;23.384;2024-03-02T00:40:48;94883.00;;;9.61;100.00
4617;BME280;2321;42.704;23.384;2024-03-02T00:43:40;94885.66;;;9.61;100.00
4617;BME280;2321;42.704;23.384;2024-03-02T00:46:13;94878.69;;;9.60;100.00
4617;BME280;2321;42.704;23.384;2024-03-02T00:48:52;94878.91;;;9.58;100.00
4617;BME280;2321;42.704;23.384;2024-03-02T00:51:21;94893.63;;;9.61;100.00
4617;BME280;2321;42.704;23.384;2024-03-02T00:53:48;94874.63;;;9.64;100.00
4617;BME280;2321;42.704;23.384;2024-03-02T00:56:16;94879.94;;;9.64;100.00
4617;BME280;2321;42.704;23.384;2024-03-02T00:58:44;94878.72;;;9.67;100.00
4617;BME280;2321;42.704;23.384;2024-03-02T01:01:12;94875.25;;;9.66;100.00
4617;BME280;2321;42.704;23.384;2024-03-02T01:03:41;94874.66;;;9.71;100.00
4617;BME280;2321;42.704;23.384;2024-03-02T01:06:08;94874.06;;;9.76;100.00
4617;BME280;2321;42.704;23.384;2024-03-02T01:08:36;94875.09;;;9.75;100.00
4617;BME280;2321;42.704;23.384;2024-03-02T01:11:03;94875.09;;;9.75;100.00
4617;BME280;2321;42.704;23.384;2024-03-02T01:13:31;94888.78;;;9.78;100.00
4617;BME280;2321;42.704;23.384;2024-03-02T01:15:58;94878.97;;;9.79;100.00
4617;BME280;2321;42.704;23.384;2024-03-02T01:18:27;94865.28;;;9.82;100.00
4617;BME280;2321;42.704;23.384;2024-03-02T01:20:54;94877.97;;;9.87;100.00
4617;BME280;2321;42.704;23.384;2024-03-02T01:23:22;94870.44;;;9.90;100.00
4617;BME280;2321;42.704;23.384;2024-03-02T01:25:49;94874.31;;;9.95;100.00
4617;BME280;2321;42.704;23.384;2024-03-02T01:28:17;94862.03;;;9.94;100.00
4617;BME280;2321;42.704;23.384;2024-03-02T01:30:44;94865.50;;;9.94;100.00
4617;BME280;2321;42.704;23.384;2024-03-02T01:33:11;94860.81;;;9.96;100.00
4617;BME280;2321;42.704;23.384;2024-03-02T01:35:40;94860.59;;;9.98;100.00
4617;BME280;2321;42.704;23.384;2024-03-02T01:38:07;94864.28;;;9.97;100.00
4617;BME280;2321;42.704;23.384;2024-03-02T01:40:34;94861.00;;;9.95;100.00
4617;BME280;2321;42.704;23.384;2024-03-02T01:43:01;94855.09;;;9.93;100.00
4617;BME280;2321;42.704;23.384;2024-03-02T01:45:29;94847.50;;;9.89;100.00
4617;BME280;2321;42.704;23.384;2024-03-02T01:47:56;94854.06;;;9.87;100.00
4617;BME280;2321;42.704;23.384;2024-03-02T01:50:27;94848.50;;;9.88;100.00
4617;BME280;2321;42.704;23.384;2024-03-02T01:52:56;94849.31;;;9.82;100.00
4617;BME280;2321;42.704;23.384;2024-03-02T01:55:23;94844.22;;;9.80;100.00
4617;BME280;2321;42.704;23.384;2024-03-02T01:57:51;94842.97;;;9.76;100.00
4617;BME280;2321;42.704;23.384;2024-03-02T02:00:20;94847.03;;;9.72;100.00
4617;BME280;2321;42.704;23.384;2024-03-02T02:02:48;94854.84;;;9.74;100.00
4617;BME280;2321;42.704;23.384;2024-03-02T02:05:17;94849.94;;;9.77;100.00
4617;BME280;2321;42.704;23.384;2024-03-02T02:07:44;94851.78;;;9.77;100.00
4617;BME280;2321;42.704;23.384;2024-03-02T02:10:13;94852.59;;;9.77;100.00
4617;BME280;2321;42.704;23.384;2024-03-02T02:12:40;94843.97;;;9.75;100.00
4617;BME280;2321;42.704;23.384;2024-03-02T02:15:22;94839.88;;;9.73;100.00
4617;BME280;2321;42.704;23.384;2024-03-02T02:17:49;94842.97;;;9.76;100.00
4617;BME280;2321;42.704;23.384;2024-03-02T02:20:17;94848.06;;;9.71;100.00
4617;BME280;2321;42.704;23.384;2024-03-02T02:23:01;94848.06;;;9.71;100.00
4617;BME280;2321;42.704;23.384;2024-03-02T02:25:28;94839.06;;;9.72;100.00
4617;BME280;2321;42.704;23.384;2024-03-02T02:27:56;94841.13;;;9.70;100.00
4617;BME280;2321;42.704;23.384;2024-03-02T02:30:25;94842.94;;;9.69;100.00
4617;BME280;2321;42.704;23.384;2024-03-02T02:32:53;94844.38;;;9.72;100.00
4617;BME280;2321;42.704;23.384;2024-03-02T02:35:20;94841.13;;;9.70;100.00
4617;BME280;2321;42.704;23.384;2024-03-02T02:37:47;94841.94;;;9.70;100.00
4617;BME280;2321;42.704;23.384;2024-03-02T02:40:17;94843.16;;;9.68;100.00
4617;BME280;2321;42.704;23.384;2024-03-02T02:42:45;94850.75;;;9.71;100.00
4617;BME280;2321;42.704;23.384;2024-03-02T02:45:12;94842.75;;;9.71;100.00
4617;BME280;2321;42.704;23.384;2024-03-02T02:47:40;94834.16;;;9.76;100.00
4617;BME280;2321;42.704;23.384;2024-03-02T02:50:08;94847.47;;;9.69;100.00
4617;BME280;2321;42.704;23.384;2024-03-02T02:52:36;94839.91;;;9.66;100.00
4617;BME280;2321;42.704;23.384;2024-03-02T02:55:06;94848.66;;;9.59;100.00
4617;BME280;2321;42.704;23.384;2024-03-02T02:57:35;94846.97;;;9.52;100.00
4617;BME280;2321;42.704;23.384;2024-03-02T03:00:05;94839.81;;;9.45;100.00
4617;BME280;2321;42.704;23.384;2024-03-02T03:02:36;94843.47;;;9.37;100.00
4617;BME280;2321;42.704;23.384;2024-03-02T03:05:05;94839.16;;;9.36;100.00
4617;BME280;2321;42.704;23.384;2024-03-02T03:07:32;94827.69;;;9.29;100.00
4617;BME280;2321;42.704;23.384;2024-03-02T03:10:00;94835.66;;;9.29;100.00
4617;BME280;2321;42.704;23.384;2024-03-02T03:12:28;94836.47;;;9.30;100.00
4617;BME280;2321;42.704;23.384;2024-03-02T03:14:58;94832.59;;;9.32;100.00
4617;BME280;2321;42.704;23.384;2024-03-02T03:17:25;94838.31;;;9.29;100.00
4617;BME280;2321;42.704;23.384;2024-03-02T03:19:52;94835.66;;;9.29;100.00
4617;BME280;2321;42.704;23.384;2024-03-02T03:22:20;94830.94;;;9.24;100.00
4617;BME280;2321;42.704;23.384;2024-03-02T03:24:47;94827.47;;;9.24;100.00
4617;BME280;2321;42.704;23.384;2024-03-02T03:27:14;94843.41;;;9.24;100.00
4617;BME280;2321;42.704;23.384;2024-03-02T03:29:41;94843.84;;;9.28;100.00
4617;BME280;2321;42.704;23.384;2024-03-02T03:32:10;94837.31;;;9.30;100.00
4617;BME280;2321;42.704;23.384;2024-03-02T03:34:37;94844.25;;;9.31;100.00
4617;BME280;2321;42.704;23.384;2024-03-02T03:37:04;94842.03;;;9.35;100.00
4617;BME280;2321;42.704;23.384;2024-03-02T03:39:31;94837.50;;;9.35;100.00
4617;BME280;2321;42.704;23.384;2024-03-02T03:41:58;94843.88;;;9.34;100.00
4617;BME280;2321;42.704;23.384;2024-03-02T03:44:25;94841.41;;;9.33;100.00
4617;BME280;2321;42.704;23.384;2024-03-02T03:46:52;94840.78;;;9.31;100.00
4617;BME280;2321;42.704;23.384;2024-03-02T03:49:21;94841.59;;;9.31;100.00
4617;BME280;2321;42.704;23.384;2024-03-02T03:51:48;94836.69;;;9.28;100.00
4617;BME280;2321;42.704;23.384;2024-03-02T03:54:15;94839.94;;;9.30;100.00
4617;BME280;2321;42.704;23.384;2024-03-02T03:56:42;94836.28;;;9.31;100.00
4617;BME280;2321;42.704;23.384;2024-03-02T03:59:09;94838.72;;;9.33;100.00
4617;BME280;2321;42.704;23.384;2024-03-02T04:01:37;94835.91;;;9.34;100.00
4617;BME280;2321;42.704;23.384;2024-03-02T04:04:04;94838.34;;;9.36;100.00
4617;BME280;2321;42.704;23.384;2024-03-02T04:06:32;94840.00;;;9.37;100.00
4617;BME280;2321;42.704;23.384;2024-03-02T04:08:59;94837.50;;;9.35;100.00
4617;BME280;2321;42.704;23.384;2024-03-02T04:11:26;94834.84;;;9.35;100.00
4617;BME280;2321;42.704;23.384;2024-03-02T04:13:53;94837.13;;;9.39;100.00
4617;BME280;2321;42.704;23.384;2024-03-02T04:16:20;94837.75;;;9.41;100.00
4617;BME280;2321;42.704;23.384;2024-03-02T04:18:48;94836.13;;;9.40;100.00
4617;BME280;2321;42.704;23.384;2024-03-02T04:21:15;94836.53;;;9.43;100.00
4617;BME280;2321;42.704;23.384;2024-03-02T04:23:44;94839.81;;;9.45;100.00
4617;BME280;2321;42.704;23.384;2024-03-02T04:26:11;94845.75;;;9.47;100.00
4617;BME280;2321;42.704;23.384;2024-03-02T04:28:38;94840.63;;;9.46;100.00
4617;BME280;2321;42.704;23.384;2024-03-02T04:31:05;94845.53;;;9.42;100.00
4617;BME280;2321;42.704;23.384;2024-03-02T04:33:32;94842.69;;;9.44;100.00
4617;BME280;2321;42.704;23.384;2024-03-02T04:35:59;94852.06;;;9.40;100.00
4617;BME280;2321;42.704;23.384;2024-03-02T04:38:26;94846.75;;;9.40;100.00
4617;BME280;2321;42.704;23.384;2024-03-02T04:40:55;94842.03;;;9.42;100.00
4617;BME280;2321;42.704;23.384;2024-03-02T04:43:22;94844.09;;;9.40;100.00
4617;BME280;2321;42.704;23.384;2024-03-02T04:45:52;94846.31;;;9.36;100.00
4617;BME280;2321;42.704;23.384;2024-03-02T04:48:19;94847.13;;;9.36;100.00
4617;BME280;2321;42.704;23.384;2024-03-02T04:50:47;94854.09;;;9.37;100.00
4617;BME280;2321;42.704;23.384;2024-03-02T04:53:14;94855.09;;;9.36;100.00
4617;BME280;2321;42.704;23.384;2024-03-02T04:55:41;94850.19;;;9.33;100.00
4617;BME280;2321;42.704;23.384;2024-03-02T04:58:27;94855.72;;;9.32;100.00
4617;BME280;2321;42.704;23.384;2024-03-02T05:00:54;94851.59;;;9.29;100.00
4617;BME280;2321;42.704;23.384;2024-03-02T05:03:22;94847.72;;;9.25;100.00
4617;BME280;2321;42.704;23.384;2024-03-02T05:05:49;94853.19;;;9.23;100.00
4617;BME280;2321;42.704;23.384;2024-03-02T05:08:16;94859.34;;;9.24;100.00
4617;BME280;2321;42.704;23.384;2024-03-02T05:10:44;94854.84;;;9.24;100.00
4617;BME280;2321;42.704;23.384;2024-03-02T05:13:11;94861.00;;;9.25;100.00
4617;BME280;2321;42.704;23.384;2024-03-02T05:15:38;94861.00;;;9.25;100.00
4617;BME280;2321;42.704;23.384;2024-03-02T05:18:06;94862.00;;;9.24;100.00
4617;BME280;2321;42.704;23.384;2024-03-02T05:20:33;94861.00;;;9.25;100.00
4617;BME280;2321;42.704;23.384;2024-03-02T05:23:00;94864.47;;;9.25;100.00
4617;BME280;2321;42.704;23.384;2024-03-02T05:25:27;94866.31;;;9.25;100.00
4617;BME280;2321;42.704;23.384;2024-03-02T05:27:54;94865.44;;;9.18;100.00
4617;BME280;2321;42.704;23.384;2024-03-02T05:30:21;94875.50;;;9.22;100.00
4617;BME280;2321;42.704;23.384;2024-03-02T05:32:50;94873.66;;;9.23;100.00
4617;BME280;2321;42.704;23.384;2024-03-02T05:35:17;94885.50;;;9.27;100.00
4617;BME280;2321;42.704;23.384;2024-03-02T05:37:44;94875.09;;;9.25;100.00
4617;BME280;2321;42.704;23.384;2024-03-02T05:40:11;94878.75;;;9.24;100.00
4617;BME280;2321;42.704;23.384;2024-03-02T05:42:38;94889.19;;;9.26;100.00
4617;BME280;2321;42.704;23.384;2024-03-02T05:45:07;94892.03;;;9.24;100.00
4617;BME280;2321;42.704;23.384;2024-03-02T05:47:34;94886.72;;;9.24;100.00
4617;BME280;2321;42.704;23.384;2024-03-02T05:50:04;94886.53;;;9.26;100.00
4617;BME280;2321;42.704;23.384;2024-03-02T05:52:32;94899.63;;;9.28;100.00
4617;BME280;2321;42.704;23.384;2024-03-02T05:54:59;94898.78;;;9.27;100.00
4617;BME280;2321;42.704;23.384;2024-03-02T05:57:26;94897.78;;;9.28;100.00
4617;BME280;2321;42.704;23.384;2024-03-02T06:00:11;94898.78;;;9.27;100.00
4617;BME280;2321;42.704;23.384;2024-03-02T06:02:39;94898.78;;;9.27;100.00
4617;BME280;2321;42.704;23.384;2024-03-02T06:05:08;94898.78;;;9.27;100.00
4617;BME280;2321;42.704;23.384;2024-03-02T06:07:35;94896.53;;;9.24;100.00
4617;BME280;2321;42.704;23.384;2024-03-02T06:10:03;94897.75;;;9.21;100.00
4617;BME280;2321;42.704;23.384;2024-03-02T06:12:32;94895.91;;;9.22;100.00
4617;BME280;2321;42.704;23.384;2024-03-02T06:14:59;94903.66;;;9.17;100.00
4617;BME280;2321;42.704;23.384;2024-03-02T06:17:27;94897.31;;;9.18;100.00
4617;BME280;2321;42.704;23.384;2024-03-02T06:19:54;94895.28;;;9.20;100.00
4617;BME280;2321;42.704;23.384;2024-03-02T06:22:22;94904.88;;;9.21;100.00
4617;BME280;2321;42.704;23.384;2024-03-02T06:24:50;94906.72;;;9.20;100.00
4617;BME280;2321;42.704;23.384;2024-03-02T06:27:17;94911.84;;;9.22;100.00
4617;BME280;2321;42.704;23.384;2024-03-02T06:29:44;94904.72;;;9.22;100.00
4617;BME280;2321;42.704;23.384;2024-03-02T06:32:11;94903.88;;;9.22;100.00
4617;BME280;2321;42.704;23.384;2024-03-02T06:34:38;94910.84;;;9.23;100.00
4617;BME280;2321;42.704;23.384;2024-03-02T06:37:05;94911.47;;;9.25;100.00
4617;BME280;2321;42.704;23.384;2024-03-02T06:39:34;94914.94;;;9.25;100.00
4617;BME280;2321;42.704;23.384;2024-03-02T06:42:01;94913.72;;;9.28;100.00
4617;BME280;2321;42.704;23.384;2024-03-02T06:44:29;94920.66;;;9.29;100.00
4617;BME280;2321;42.704;23.384;2024-03-02T06:46:56;94909.03;;;9.30;100.00
4617;BME280;2321;42.704;23.384;2024-03-02T06:49:23;94922.13;;;9.32;100.00
4617;BME280;2321;42.704;23.384;2024-03-02T06:51:50;94907.19;;;9.31;100.00
4617;BME280;2321;42.704;23.384;2024-03-02T06:54:17;94917.44;;;9.34;100.00
4617;BME280;2321;42.704;23.384;2024-03-02T06:56:45;94922.94;;;9.32;100.00
4617;BME280;2321;42.704;23.384;2024-03-02T06:59:12;94918.66;;;9.31;100.00
4617;BME280;2321;42.704;23.384;2024-03-02T07:01:39;94913.88;;;9.20;100.00
4617;BME280;2321;42.704;23.384;2024-03-02T07:04:07;94924.78;;;9.32;100.00
4617;BME280;2321;42.704;23.384;2024-03-02T07:06:34;94926.63;;;9.31;100.00
4617;BME280;2321;42.704;23.384;2024-03-02T07:09:01;94931.28;;;9.29;100.00
4617;BME280;2321;42.704;23.384;2024-03-02T07:11:28;94930.50;;;9.29;100.00
4617;BME280;2321;42.704;23.384;2024-03-02T07:13:57;94930.06;;;9.25;100.00
4617;BME280;2321;42.704;23.384;2024-03-02T07:16:24;94936.19;;;9.25;100.00
4617;BME280;2321;42.704;23.384;2024-03-02T07:18:55;94932.31;;;9.28;100.00
4617;BME280;2321;42.704;23.384;2024-03-02T07:21:24;94936.81;;;9.28;100.00
4617;BME280;2321;42.704;23.384;2024-03-02T07:23:51;94934.75;;;9.30;100.00
4617;BME280;2321;42.704;23.384;2024-03-02T07:26:18;94938.25;;;9.30;100.00
4617;BME280;2321;42.704;23.384;2024-03-02T07:28:46;94943.78;;;9.35;100.00
4617;BME280;2321;42.704;23.384;2024-03-02T07:31:16;94934.63;;;9.38;100.00
4617;BME280;2321;42.704;23.384;2024-03-02T07:33:44;94938.72;;;9.41;100.00
4617;BME280;2321;42.704;23.384;2024-03-02T07:36:12;94945.66;;;9.42;100.00
4617;BME280;2321;42.704;23.384;2024-03-02T07:38:39;94938.34;;;9.44;100.00
4617;BME280;2321;42.704;23.384;2024-03-02T07:41:06;94948.97;;;9.44;100.00
4617;BME280;2321;42.704;23.384;2024-03-02T07:43:34;94942.38;;;9.40;100.00
4617;BME280;2321;42.704;23.384;2024-03-02T07:46:01;94955.06;;;9.37;100.00
4617;BME280;2321;42.704;23.384;2024-03-02T07:48:30;94952.59;;;9.36;100.00
4617;BME280;2321;42.704;23.384;2024-03-02T07:50:57;94947.09;;;9.37;100.00
4617;BME280;2321;42.704;23.384;2024-03-02T07:53:25;94952.59;;;9.36;100.00
4617;BME280;2321;42.704;23.384;2024-03-02T07:55:52;94942.34;;;9.33;100.00
4617;BME280;2321;42.704;23.384;2024-03-02T07:58:19;94954.41;;;9.35;100.00
4617;BME280;2321;42.704;23.384;2024-03-02T08:00:47;94956.91;;;9.37;100.00
4617;BME280;2321;42.704;23.384;2024-03-02T08:03:14;94953.41;;;9.36;100.00
4617;BME280;2321;42.704;23.384;2024-03-02T08:05:44;94962.00;;;9.39;100.00
4617;BME280;2321;42.704;23.384;2024-03-02T08:08:11;94961.19;;;9.38;100.00
4617;BME280;2321;42.704;23.384;2024-03-02T08:10:38;94961.00;;;9.40;100.00
4617;BME280;2321;42.704;23.384;2024-03-02T08:13:05;94953.63;;;9.42;100.00
4617;BME280;2321;42.704;23.384;2024-03-02T08:15:32;94961.00;;;9.40;100.00
4617;BME280;2321;42.704;23.384;2024-03-02T08:18:00;94960.59;;;9.43;100.00
4617;BME280;2321;42.704;23.384;2024-03-02T08:20:27;94960.03;;;9.47;100.00
4617;BME280;2321;42.704;23.384;2024-03-02T08:22:55;94960.66;;;9.50;100.00
4617;BME280;2321;42.704;23.384;2024-03-02T08:25:22;94957.56;;;9.46;100.00
4617;BME280;2321;42.704;23.384;2024-03-02T08:27:49;94964.53;;;9.47;100.00
4617;BME280;2321;42.704;23.384;2024-03-02T08:30:17;94960.44;;;9.51;100.00
4617;BME280;2321;42.704;23.384;2024-03-02T08:32:44;94965.34;;;9.54;100.00
4617;BME280;2321;42.704;23.384;2024-03-02T08:35:13;94965.19;;;9.56;100.00
4617;BME280;2321;42.704;23.384;2024-03-02T08:37:41;94961.25;;;9.52;100.00
4617;BME280;2321;42.704;23.384;2024-03-02T08:40:10;94960.88;;;9.55;100.00
4617;BME280;2321;42.704;23.384;2024-03-02T08:42:38;94960.69;;;9.56;100.00
4617;BME280;2321;42.704;23.384;2024-03-02T08:45:06;94965.78;;;9.58;100.00
4617;BME280;2321;42.704;23.384;2024-03-02T08:47:33;94960.69;;;9.56;100.00
4617;BME280;2321;42.704;23.384;2024-03-02T08:50:00;94959.44;;;9.52;100.00
4617;BME280;2321;42.704;23.384;2024-03-02T08:52:29;94964.13;;;9.57;100.00
4617;BME280;2321;42.704;23.384;2024-03-02T08:54:56;94956.22;;;9.64;100.00
4617;BME280;2321;42.704;23.384;2024-03-02T08:57:25;94950.72;;;9.65;100.00
4617;BME280;2321;42.704;23.384;2024-03-02T08:59:52;94957.25;;;9.69;100.00
4617;BME280;2321;42.704;23.384;2024-03-02T09:02:19;94955.41;;;9.70;100.00
4617;BME280;2321;42.704;23.384;2024-03-02T09:04:46;94949.91;;;9.72;100.00
4617;BME280;2321;42.704;23.384;2024-03-02T09:07:13;94957.69;;;9.73;100.00
4617;BME280;2321;42.704;23.384;2024-03-02T09:09:40;94952.41;;;9.80;100.00
4617;BME280;2321;42.704;23.384;2024-03-02T09:12:07;94954.06;;;9.88;100.00
4617;BME280;2321;42.704;23.384;2024-03-02T09:14:36;94969.22;;;9.94;100.00
4617;BME280;2321;42.704;23.384;2024-03-02T09:17:03;94966.81;;;9.99;100.00
4617;BME280;2321;42.704;23.384;2024-03-02T09:19:31;94959.22;;;10.03;100.00
4617;BME280;2321;42.704;23.384;2024-03-02T09:21:58;94967.00;;;10.05;100.00
4617;BME280;2321;42.704;23.384;2024-03-02T09:24:25;94969.69;;;10.05;100.00
4617;BME280;2321;42.704;23.384;2024-03-02T09:26:52;94975.41;;;10.01;100.00
4617;BME280;2321;42.704;23.384;2024-03-02T09:29:19;94980.09;;;9.99;100.00
4617;BME280;2321;42.704;23.384;2024-03-02T09:31:48;94980.91;;;10.00;100.00
4617;BME280;2321;42.704;23.384;2024-03-02T09:34:16;94962.28;;;9.93;100.00
4617;BME280;2321;42.704;23.384;2024-03-02T09:36:43;94982.13;;;9.97;100.00
4617;BME280;2321;42.704;23.384;2024-03-02T09:39:10;94979.88;;;10.01;100.00
4617;BME280;2321;42.704;23.384;2024-03-02T09:41:38;94982.97;;;10.05;100.00
4617;BME280;2321;42.704;23.384;2024-03-02T09:44:05;94982.16;;;10.04;100.00
4617;BME280;2321;42.704;23.384;2024-03-02T09:46:32;94978.66;;;10.03;100.00
4617;BME280;2321;42.704;23.384;2024-03-02T09:49:02;94975.81;;;10.05;100.00
4617;BME280;2321;42.704;23.384;2024-03-02T09:51:29;94972.94;;;10.07;100.00
4617;BME280;2321;42.704;23.384;2024-03-02T09:53:57;94980.75;;;10.08;100.00
4617;BME280;2321;42.704;23.384;2024-03-02T09:56:24;94979.09;;;10.07;100.00
4617;BME280;2321;42.704;23.384;2024-03-02T09:58:51;94977.88;;;10.10;100.00
4617;BME280;2321;42.704;23.384;2024-03-02T10:01:19;94973.16;;;10.12;100.00
4617;BME280;2321;42.704;23.384;2024-03-02T10:03:47;94972.75;;;10.08;100.00
4617;BME280;2321;42.704;23.384;2024-03-02T10:06:21;94976.25;;;10.09;100.00
4617;BME280;2321;42.704;23.384;2024-03-02T10:08:49;94976.66;;;10.12;100.00
4617;BME280;2321;42.704;23.384;2024-03-02T10:11:27;94974.00;;;10.19;100.00
4617;BME280;2321;42.704;23.384;2024-03-02T10:14:05;94977.53;;;10.27;100.00
4617;BME280;2321;42.704;23.384;2024-03-02T10:16:35;94977.94;;;10.37;100.00
4617;BME280;2321;42.704;23.384;2024-03-02T10:19:18;94973.47;;;10.44;100.00
4617;BME280;2321;42.704;23.384;2024-03-02T10:21:48;94974.72;;;10.49;100.00
4617;BME280;2321;42.704;23.384;2024-03-02T10:24:16;94971.22;;;10.48;100.00
4617;BME280;2321;42.704;23.384;2024-03-02T10:26:44;94974.31;;;10.52;100.00
4617;BME280;2321;42.704;23.384;2024-03-02T10:29:11;94967.16;;;10.52;100.00
4617;BME280;2321;42.704;23.384;2024-03-02T10:31:39;94972.31;;;10.61;100.00
4617;BME280;2321;42.704;23.384;2024-03-02T10:34:07;94976.81;;;10.60;100.00
4617;BME280;2321;42.704;23.384;2024-03-02T10:36:35;94976.38;;;10.56;100.00
4617;BME280;2321;42.704;23.384;2024-03-02T10:39:04;94972.72;;;10.57;100.00
4617;BME280;2321;42.704;23.384;2024-03-02T10:41:33;94973.31;;;10.60;100.00
4617;BME280;2321;42.704;23.384;2024-03-02T10:44:02;94971.06;;;10.63;100.00
4617;BME280;2321;42.704;23.384;2024-03-02T10:46:30;94972.72;;;10.71;100.00
4617;BME280;2321;42.704;23.384;2024-03-02T10:48:58;94972.50;;;10.73;100.00
4617;BME280;2321;42.704;23.384;2024-03-02T10:51:26;94965.34;;;10.73;100.00
4617;BME280;2321;42.704;23.384;2024-03-02T10:53:57;94961.25;;;10.77;100.00
4617;BME280;2321;42.704;23.384;2024-03-02T10:56:29;94962.88;;;10.65;100.00
4617;BME280;2321;42.704;23.384;2024-03-02T10:59:02;94959.34;;;10.51;100.00
4617;BME280;2321;42.704;23.384;2024-03-02T11:01:29;94948.91;;;10.42;100.00
4617;BME280;2321;42.704;23.384;2024-03-02T11:03:58;94949.06;;;10.34;100.00
4617;BME280;2321;42.704;23.384;2024-03-02T11:06:28;94947.84;;;10.30;100.00
4617;BME280;2321;42.704;23.384;2024-03-02T11:09:00;94953.97;;;10.23;100.00
4617;BME280;2321;42.704;23.384;2024-03-02T11:11:37;94950.28;;;10.18;100.00
4617;BME280;2321;42.704;23.384;2024-03-02T11:14:13;94952.69;;;10.12;100.00
4617;BME280;2321;42.704;23.384;2024-03-02T11:16:40;94952.72;;;10.06;100.00
4617;BME280;2321;42.704;23.384;2024-03-02T11:19:10;94955.94;;;10.01;100.00
4617;BME280;2321;42.704;23.384;2024-03-02T11:21:38;94954.69;;;9.97;100.00
4617;BME280;2321;42.704;23.384;2024-03-02T11:24:32;94956.13;;;9.93;100.00
4617;BME280;2321;42.704;23.384;2024-03-02T11:27:01;94950.59;;;9.94;100.00
4617;BME280;2321;42.704;23.384;2024-03-02T11:29:46;94947.13;;;9.94;100.00
4617;BME280;2321;42.704;23.384;2024-03-02T11:32:20;94948.78;;;9.95;100.00
4617;BME280;2321;42.704;23.384;2024-03-02T11:34:48;94922.31;;;9.79;100.00
4617;BME280;2321;42.704;23.384;2024-03-02T11:37:16;94942.00;;;9.92;100.00
4617;BME280;2321;42.704;23.384;2024-03-02T11:39:44;94925.41;;;9.83;100.00
4617;BME280;2321;42.704;23.384;2024-03-02T11:42:14;94945.69;;;9.91;100.00
4617;BME280;2321;42.704;23.384;2024-03-02T11:44:43;94947.34;;;9.92;100.00
4617;BME280;2321;42.704;23.384;2024-03-02T11:47:12;94944.47;;;9.87;100.00
4617;BME280;2321;42.704;23.384;2024-03-02T11:49:44;94944.06;;;9.90;100.00
4617;BME280;2321;42.704;23.384;2024-03-02T11:52:12;94948.38;;;9.98;100.00
4617;BME280;2321;42.704;23.384;2024-03-02T11:54:41;94943.88;;;9.98;100.00
4617;BME280;2321;42.704;23.384;2024-03-02T11:57:14;94943.66;;;10.00;100.00
4617;BME280;2321;42.704;23.384;2024-03-02T11:59:42;94941.44;;;10.03;100.00
4617;BME280;2321;42.704;23.384;2024-03-02T12:02:15;94945.13;;;10.09;100.00
4617;BME280;2321;42.704;23.384;2024-03-02T12:04:43;94940.25;;;10.20;100.00
4617;BME280;2321;42.704;23.384;2024-03-02T12:07:12;94942.94;;;10.27;100.00
4617;BME280;2321;42.704;23.384;2024-03-02T12:09:39;94945.41;;;10.35;100.00
4617;BME280;2321;42.704;23.384;2024-03-02T12:12:07;94940.50;;;10.39;100.00
4617;BME280;2321;42.704;23.384;2024-03-02T12:14:37;94940.91;;;10.42;100.00
4617;BME280;2321;42.704;23.384;2024-03-02T12:17:05;94934.56;;;10.50;100.00
4617;BME280;2321;42.704;23.384;2024-03-02T12:19:33;94940.94;;;10.56;100.00
4617;BME280;2321;42.704;23.384;2024-03-02T12:22:00;94946.28;;;10.56;100.00
4617;BME280;2321;42.704;23.384;2024-03-02T12:24:28;94940.75;;;10.57;100.00
4617;BME280;2321;42.704;23.384;2024-03-02T12:26:57;94949.16;;;10.54;100.00
4617;BME280;2321;42.704;23.384;2024-03-02T12:29:24;94947.50;;;10.53;100.00
4617;BME280;2321;42.704;23.384;2024-03-02T12:31:53;94936.63;;;10.55;100.00
4617;BME280;2321;42.704;23.384;2024-03-02T12:34:21;94943.22;;;10.59;100.00
4617;BME280;2321;42.704;23.384;2024-03-02T12:36:49;94941.56;;;10.65;100.00
4617;BME280;2321;42.704;23.384;2024-03-02T12:39:18;94943.41;;;10.71;100.00
4617;BME280;2321;42.704;23.384;2024-03-02T12:41:46;94947.75;;;10.79;100.00
4617;BME280;2321;42.704;23.384;2024-03-02T12:44:16;94938.72;;;10.87;100.00
4617;BME280;2321;42.704;23.384;2024-03-02T12:46:43;94937.28;;;10.91;100.00
4617;BME280;2321;42.704;23.384;2024-03-02T12:49:13;94943.81;;;10.95;100.00
4617;BME280;2321;42.704;23.384;2024-03-02T12:51:42;94943.22;;;11.00;100.00
4617;BME280;2321;42.704;23.384;2024-03-02T12:54:10;94944.84;;;11.01;100.00
4617;BME280;2321;42.704;23.384;2024-03-02T12:56:38;94947.09;;;11.04;100.00
4617;BME280;2321;42.704;23.384;2024-03-02T12:59:05;94946.91;;;11.13;100.00
4617;BME280;2321;42.704;23.384;2024-03-02T13:01:32;94949.94;;;11.16;100.00
4617;BME280;2321;42.704;23.384;2024-03-02T13:04:00;94947.50;;;11.21;100.00
4617;BME280;2321;42.704;23.384;2024-03-02T13:06:28;94950.34;;;11.27;100.00
4617;BME280;2321;42.704;23.384;2024-03-02T13:08:55;94949.53;;;11.33;100.00
4617;BME280;2321;42.704;23.384;2024-03-02T13:11:23;94938.44;;;11.36;100.00
4617;BME280;2321;42.704;23.384;2024-03-02T13:13:51;94946.22;;;11.38;100.00